sensor_id;sensor_type;location;lat;lon;timestamp;P1;durP1;ratioP1;P2;durP2;ratioP2
25107;SDS011;13090;53.422;7.670;2023-04-24T00:02:22;5.20;;;4.38;;
25107;SDS011;13090;53.422;7.670;2023-04-24T00:07:25;4.90;;;4.32;;
25107;SDS011;13090;53.422;7.670;2023-04-24T00:12:28;4.90;;;4.22;;
25107;SDS011;13090;53.422;7.670;2023-04-24T00:17:30;3.85;;;3.45;;
25107;SDS011;13090;53.422;7.670;2023-04-24T00:22:33;4.88;;;4.18;;
25107;SDS011;13090;53.422;7.670;2023-04-24T00:27:36;3.63;;;3.15;;
25107;SDS011;13090;53.422;7.670;2023-04-24T00:32:38;3.53;;;3.05;;
25107;SDS011;13090;53.422;7.670;2023-04-24T00:37:41;2.40;;;1.90;;
25107;SDS011;13090;53.422;7.670;2023-04-24T00:42:44;2.15;;;1.13;;
25107;SDS011;13090;53.422;7.670;2023-04-24T00:47:47;1.73;;;0.90;;
25107;SDS011;13090;53.422;7.670;2023-04-24T00:52:50;0.65;;;0.40;;
25107;SDS011;13090;53.422;7.670;2023-04-24T00:57:54;0.77;;;0.75;;
25107;SDS011;13090;53.422;7.670;2023-04-24T01:02:56;0.93;;;0.43;;
25107;SDS011;13090;53.422;7.670;2023-04-24T01:08:01;0.30;;;0.30;;
25107;SDS011;13090;53.422;7.670;2023-04-24T01:13:05;0.50;;;0.50;;
25107;SDS011;13090;53.422;7.670;2023-04-24T01:18:09;0.50;;;0.50;;
25107;SDS011;13090;53.422;7.670;2023-04-24T01:23:13;2.15;;;0.68;;
25107;SDS011;13090;53.422;7.670;2023-04-24T01:28:15;0.70;;;0.70;;
25107;SDS011;13090;53.422;7.670;2023-04-24T01:33:18;0.70;;;0.70;;
25107;SDS011;13090;53.422;7.670;2023-04-24T01:38:24;0.88;;;0.88;;
25107;SDS011;13090;53.422;7.670;2023-04-24T01:43:26;1.05;;;0.98;;
25107;SDS011;13090;53.422;7.670;2023-04-24T01:48:29;0.80;;;0.80;;
25107;SDS011;13090;53.422;7.670;2023-04-24T01:53:34;2.33;;;1.08;;
25107;SDS011;13090;53.422;7.670;2023-04-24T01:58:36;1.55;;;1.10;;
25107;SDS011;13090;53.422;7.670;2023-04-24T02:03:38;2.45;;;1.40;;
25107;SDS011;13090;53.422;7.670;2023-04-24T02:08:42;1.27;;;1.17;;
25107;SDS011;13090;53.422;7.670;2023-04-24T02:13:44;1.75;;;1.40;;
25107;SDS011;13090;53.422;7.670;2023-04-24T02:18:47;1.08;;;1.05;;
25107;SDS011;13090;53.422;7.670;2023-04-24T02:23:50;2.17;;;1.80;;
25107;SDS011;13090;53.422;7.670;2023-04-24T02:28:52;3.33;;;1.90;;
25107;SDS011;13090;53.422;7.670;2023-04-24T02:33:54;2.95;;;2.38;;
25107;SDS011;13090;53.422;7.670;2023-04-24T02:38:58;2.17;;;1.98;;
25107;SDS011;13090;53.422;7.670;2023-04-24T02:44:00;2.50;;;2.30;;
25107;SDS011;13090;53.422;7.670;2023-04-24T02:49:02;2.25;;;2.05;;
25107;SDS011;13090;53.422;7.670;2023-04-24T02:54:06;2.15;;;1.98;;
25107;SDS011;13090;53.422;7.670;2023-04-24T02:59:08;2.75;;;2.55;;
25107;SDS011;13090;53.422;7.670;2023-04-24T03:04:11;4.85;;;2.80;;
25107;SDS011;13090;53.422;7.670;2023-04-24T03:09:15;3.20;;;2.90;;
25107;SDS011;13090;53.422;7.670;2023-04-24T03:14:17;3.38;;;3.08;;
25107;SDS011;13090;53.422;7.670;2023-04-24T03:19:19;3.15;;;2.85;;
25107;SDS011;13090;53.422;7.670;2023-04-24T03:24:23;3.15;;;2.85;;
25107;SDS011;13090;53.422;7.670;2023-04-24T03:29:25;4.25;;;3.60;;
25107;SDS011;13090;53.422;7.670;2023-04-24T03:34:30;4.20;;;3.22;;
25107;SDS011;13090;53.422;7.670;2023-04-24T03:39:34;4.00;;;3.60;;
25107;SDS011;13090;53.422;7.670;2023-04-24T03:44:36;5.03;;;3.47;;
25107;SDS011;13090;53.422;7.670;2023-04-24T03:49:38;4.10;;;3.70;;
25107;SDS011;13090;53.422;7.670;2023-04-24T03:54:43;4.18;;;3.58;;
25107;SDS011;13090;53.422;7.670;2023-04-24T03:59:45;5.00;;;4.10;;
25107;SDS011;13090;53.422;7.670;2023-04-24T04:04:47;4.85;;;4.10;;
25107;SDS011;13090;53.422;7.670;2023-04-24T04:09:51;4.18;;;3.78;;
25107;SDS011;13090;53.422;7.670;2023-04-24T04:14:53;4.65;;;4.22;;
25107;SDS011;13090;53.422;7.670;2023-04-24T04:19:55;5.20;;;4.30;;
25107;SDS011;13090;53.422;7.670;2023-04-24T04:24:59;5.28;;;4.20;;
25107;SDS011;13090;53.422;7.670;2023-04-24T04:30:01;4.85;;;4.43;;
25107;SDS011;13090;53.422;7.670;2023-04-24T04:35:04;6.47;;;4.50;;
25107;SDS011;13090;53.422;7.670;2023-04-24T04:40:08;4.13;;;3.75;;
25107;SDS011;13090;53.422;7.670;2023-04-24T04:45:11;6.07;;;3.97;;
25107;SDS011;13090;53.422;7.670;2023-04-24T04:50:13;4.45;;;3.83;;
25107;SDS011;13090;53.422;7.670;2023-04-24T04:55:16;4.35;;;3.88;;
25107;SDS011;13090;53.422;7.670;2023-04-24T05:00:18;4.68;;;4.00;;
25107;SDS011;13090;53.422;7.670;2023-04-24T05:05:21;4.28;;;3.72;;
25107;SDS011;13090;53.422;7.670;2023-04-24T05:10:24;3.40;;;3.10;;
25107;SDS011;13090;53.422;7.670;2023-04-24T05:15:27;3.15;;;2.85;;
25107;SDS011;13090;53.422;7.670;2023-04-24T05:20:29;3.85;;;3.00;;
25107;SDS011;13090;53.422;7.670;2023-04-24T05:25:33;3.70;;;3.03;;
25107;SDS011;13090;53.422;7.670;2023-04-24T05:30:35;3.78;;;3.35;;
25107;SDS011;13090;53.422;7.670;2023-04-24T05:35:37;4.20;;;3.38;;
25107;SDS011;13090;53.422;7.670;2023-04-24T05:40:41;3.58;;;3.05;;
25107;SDS011;13090;53.422;7.670;2023-04-24T05:45:43;3.50;;;3.20;;
25107;SDS011;13090;53.422;7.670;2023-04-24T05:50:45;3.88;;;3.47;;
25107;SDS011;13090;53.422;7.670;2023-04-24T05:55:49;4.22;;;3.78;;
25107;SDS011;13090;53.422;7.670;2023-04-24T06:00:51;3.67;;;3.28;;
25107;SDS011;13090;53.422;7.670;2023-04-24T06:05:53;4.78;;;3.72;;
25107;SDS011;13090;53.422;7.670;2023-04-24T06:10:57;4.78;;;3.53;;
25107;SDS011;13090;53.422;7.670;2023-04-24T06:15:59;6.72;;;3.53;;
25107;SDS011;13090;53.422;7.670;2023-04-24T06:21:01;5.68;;;3.90;;
25107;SDS011;13090;53.422;7.670;2023-04-24T06:26:05;5.53;;;4.00;;
25107;SDS011;13090;53.422;7.670;2023-04-24T06:31:08;4.90;;;3.78;;
25107;SDS011;13090;53.422;7.670;2023-04-24T06:36:11;4.63;;;4.05;;
25107;SDS011;13090;53.422;7.670;2023-04-24T06:41:15;5.05;;;3.65;;
25107;SDS011;13090;53.422;7.670;2023-04-24T06:46:17;3.33;;;3.03;;
25107;SDS011;13090;53.422;7.670;2023-04-24T06:51:20;3.25;;;2.95;;
25107;SDS011;13090;53.422;7.670;2023-04-24T06:56:24;3.88;;;3.50;;
25107;SDS011;13090;53.422;7.670;2023-04-24T07:01:28;3.67;;;3.33;;
25107;SDS011;13090;53.422;7.670;2023-04-24T07:06:30;3.70;;;3.40;;
25107;SDS011;13090;53.422;7.670;2023-04-24T07:11:34;5.78;;;3.25;;
25107;SDS011;13090;53.422;7.670;2023-04-24T07:16:36;3.90;;;3.13;;
25107;SDS011;13090;53.422;7.670;2023-04-24T07:21:38;4.03;;;3.28;;
25107;SDS011;13090;53.422;7.670;2023-04-24T07:26:42;4.13;;;3.50;;
25107;SDS011;13090;53.422;7.670;2023-04-24T07:31:45;3.42;;;3.03;;
25107;SDS011;13090;53.422;7.670;2023-04-24T07:36:47;2.78;;;2.58;;
25107;SDS011;13090;53.422;7.670;2023-04-24T07:41:51;3.67;;;2.80;;
25107;SDS011;13090;53.422;7.670;2023-04-24T07:46:54;2.92;;;2.50;;
25107;SDS011;13090;53.422;7.670;2023-04-24T07:51:57;2.33;;;2.13;;
25107;SDS011;13090;53.422;7.670;2023-04-24T07:57:01;2.00;;;1.90;;
25107;SDS011;13090;53.422;7.670;2023-04-24T08:02:03;2.00;;;1.80;;
25107;SDS011;13090;53.422;7.670;2023-04-24T08:07:06;2.05;;;1.85;;
25107;SDS011;13090;53.422;7.670;2023-04-24T08:12:09;1.80;;;1.70;;
25107;SDS011;13090;53.422;7.670;2023-04-24T08:17:12;1.92;;;1.60;;
25107;SDS011;13090;53.422;7.670;2023-04-24T08:22:14;1.83;;;1.58;;
25107;SDS011;13090;53.422;7.670;2023-04-24T08:27:18;1.80;;;1.60;;
25107;SDS011;13090;53.422;7.670;2023-04-24T08:32:20;1.90;;;1.60;;
25107;SDS011;13090;53.422;7.670;2023-04-24T08:37:22;1.75;;;1.30;;
25107;SDS011;13090;53.422;7.670;2023-04-24T08:42:26;1.60;;;1.50;;
25107;SDS011;13090;53.422;7.670;2023-04-24T08:47:31;1.02;;;0.95;;
25107;SDS011;13090;53.422;7.670;2023-04-24T08:52:36;0.80;;;0.80;;
25107;SDS011;13090;53.422;7.670;2023-04-24T08:57:40;0.73;;;0.73;;
25107;SDS011;13090;53.422;7.670;2023-04-24T09:02:43;0.90;;;0.90;;
25107;SDS011;13090;53.422;7.670;2023-04-24T09:07:49;0.77;;;0.77;;
25107;SDS011;13090;53.422;7.670;2023-04-24T09:12:56;2.10;;;1.03;;
25107;SDS011;13090;53.422;7.670;2023-04-24T09:18:00;1.65;;;1.10;;
25107;SDS011;13090;53.422;7.670;2023-04-24T09:23:03;1.13;;;0.90;;
25107;SDS011;13090;53.422;7.670;2023-04-24T09:28:07;1.88;;;1.65;;
25107;SDS011;13090;53.422;7.670;2023-04-24T09:33:10;1.52;;;1.40;;
25107;SDS011;13090;53.422;7.670;2023-04-24T09:38:12;3.53;;;2.08;;
25107;SDS011;13090;53.422;7.670;2023-04-24T09:48:40;2.75;;;1.63;;
25107;SDS011;13090;53.422;7.670;2023-04-24T09:53:45;4.10;;;1.65;;
25107;SDS011;13090;53.422;7.670;2023-04-24T09:58:47;2.60;;;1.27;;
25107;SDS011;13090;53.422;7.670;2023-04-24T10:03:51;1.70;;;1.20;;
25107;SDS011;13090;53.422;7.670;2023-04-24T10:08:54;3.83;;;1.20;;
25107;SDS011;13090;53.422;7.670;2023-04-24T10:13:56;3.97;;;1.25;;
25107;SDS011;13090;53.422;7.670;2023-04-24T10:19:00;3.28;;;1.63;;
25107;SDS011;13090;53.422;7.670;2023-04-24T10:24:04;3.75;;;1.70;;
25107;SDS011;13090;53.422;7.670;2023-04-24T10:29:07;5.45;;;2.30;;
25107;SDS011;13090;53.422;7.670;2023-04-24T10:34:13;6.68;;;3.08;;
25107;SDS011;13090;53.422;7.670;2023-04-24T10:39:17;6.10;;;3.40;;
25107;SDS011;13090;53.422;7.670;2023-04-24T10:44:35;5.80;;;3.95;;
25107;SDS011;13090;53.422;7.670;2023-04-24T10:49:39;7.63;;;4.85;;
25107;SDS011;13090;53.422;7.670;2023-04-24T10:54:42;10.63;;;6.38;;
25107;SDS011;13090;53.422;7.670;2023-04-24T10:59:47;9.95;;;7.15;;
25107;SDS011;13090;53.422;7.670;2023-04-24T11:04:51;9.90;;;7.00;;
25107;SDS011;13090;53.422;7.670;2023-04-24T11:09:57;11.80;;;7.63;;
25107;SDS011;13090;53.422;7.670;2023-04-24T11:15:01;13.07;;;7.35;;
25107;SDS011;13090;53.422;7.670;2023-04-24T11:20:06;12.10;;;7.82;;
25107;SDS011;13090;53.422;7.670;2023-04-24T11:25:29;15.50;;;6.35;;
25107;SDS011;13090;53.422;7.670;2023-04-24T11:30:32;11.50;;;6.45;;
25107;SDS011;13090;53.422;7.670;2023-04-24T11:35:39;11.80;;;6.70;;
25107;SDS011;13090;53.422;7.670;2023-04-24T11:40:42;13.65;;;6.60;;
25107;SDS011;13090;53.422;7.670;2023-04-24T11:45:47;9.52;;;6.07;;
25107;SDS011;13090;53.422;7.670;2023-04-24T11:50:52;12.30;;;5.85;;
25107;SDS011;13090;53.422;7.670;2023-04-24T11:55:54;13.48;;;5.55;;
25107;SDS011;13090;53.422;7.670;2023-04-24T12:00:56;7.22;;;5.35;;
25107;SDS011;13090;53.422;7.670;2023-04-24T12:06:06;7.18;;;4.45;;
25107;SDS011;13090;53.422;7.670;2023-04-24T12:11:11;6.15;;;4.78;;
25107;SDS011;13090;53.422;7.670;2023-04-24T12:16:15;10.73;;;4.53;;
25107;SDS011;13090;53.422;7.670;2023-04-24T12:21:20;12.73;;;4.53;;
25107;SDS011;13090;53.422;7.670;2023-04-24T12:26:23;7.78;;;4.05;;
25107;SDS011;13090;53.422;7.670;2023-04-24T12:31:26;10.98;;;4.20;;
25107;SDS011;13090;53.422;7.670;2023-04-24T12:36:30;8.23;;;3.63;;
25107;SDS011;13090;53.422;7.670;2023-04-24T12:41:33;9.15;;;3.78;;
25107;SDS011;13090;53.422;7.670;2023-04-24T12:46:35;12.85;;;3.65;;
25107;SDS011;13090;53.422;7.670;2023-04-24T12:51:39;11.93;;;3.90;;
25107;SDS011;13090;53.422;7.670;2023-04-24T12:56:41;8.20;;;3.40;;
25107;SDS011;13090;53.422;7.670;2023-04-24T13:01:43;8.20;;;3.75;;
25107;SDS011;13090;53.422;7.670;2023-04-24T13:06:47;9.05;;;3.22;;
25107;SDS011;13090;53.422;7.670;2023-04-24T13:11:49;8.60;;;3.15;;
25107;SDS011;13090;53.422;7.670;2023-04-24T13:16:51;8.98;;;3.15;;
25107;SDS011;13090;53.422;7.670;2023-04-24T13:21:55;11.43;;;3.03;;
25107;SDS011;13090;53.422;7.670;2023-04-24T13:26:58;11.10;;;3.00;;
25107;SDS011;13090;53.422;7.670;2023-04-24T13:32:01;7.25;;;2.72;;
25107;SDS011;13090;53.422;7.670;2023-04-24T13:37:05;7.05;;;2.72;;
25107;SDS011;13090;53.422;7.670;2023-04-24T13:42:07;7.55;;;2.38;;
25107;SDS011;13090;53.422;7.670;2023-04-24T13:47:10;5.65;;;1.73;;
25107;SDS011;13090;53.422;7.670;2023-04-24T13:52:13;6.18;;;1.98;;
25107;SDS011;13090;53.422;7.670;2023-04-24T13:57:16;6.25;;;2.00;;
25107;SDS011;13090;53.422;7.670;2023-04-24T14:02:18;4.90;;;1.60;;
25107;SDS011;13090;53.422;7.670;2023-04-24T14:07:21;5.10;;;1.30;;
25107;SDS011;13090;53.422;7.670;2023-04-24T14:12:24;4.57;;;1.67;;
25107;SDS011;13090;53.422;7.670;2023-04-24T14:17:26;4.72;;;1.70;;
25107;SDS011;13090;53.422;7.670;2023-04-24T14:22:30;4.38;;;1.40;;
25107;SDS011;13090;53.422;7.670;2023-04-24T14:27:33;4.70;;;1.23;;
25107;SDS011;13090;53.422;7.670;2023-04-24T14:32:35;7.35;;;1.20;;
25107;SDS011;13090;53.422;7.670;2023-04-24T14:37:39;3.70;;;1.25;;
25107;SDS011;13090;53.422;7.670;2023-04-24T14:42:41;5.05;;;1.40;;
25107;SDS011;13090;53.422;7.670;2023-04-24T14:47:43;3.70;;;1.20;;
25107;SDS011;13090;53.422;7.670;2023-04-24T14:52:47;4.30;;;1.55;;
25107;SDS011;13090;53.422;7.670;2023-04-24T14:57:50;1.77;;;0.98;;
25107;SDS011;13090;53.422;7.670;2023-04-24T15:02:52;6.32;;;1.40;;
25107;SDS011;13090;53.422;7.670;2023-04-24T15:07:56;7.40;;;1.60;;
25107;SDS011;13090;53.422;7.670;2023-04-24T15:12:58;3.58;;;1.17;;
25107;SDS011;13090;53.422;7.670;2023-04-24T15:18:00;4.30;;;1.17;;
25107;SDS011;13090;53.422;7.670;2023-04-24T15:23:04;6.00;;;1.20;;
25107;SDS011;13090;53.422;7.670;2023-04-24T15:28:06;4.45;;;1.15;;
25107;SDS011;13090;53.422;7.670;2023-04-24T15:33:09;2.92;;;1.10;;
25107;SDS011;13090;53.422;7.670;2023-04-24T15:38:12;6.68;;;1.10;;
25107;SDS011;13090;53.422;7.670;2023-04-24T15:43:15;3.15;;;1.02;;
25107;SDS011;13090;53.422;7.670;2023-04-24T15:48:17;2.70;;;1.10;;
25107;SDS011;13090;53.422;7.670;2023-04-24T15:53:21;4.40;;;1.40;;
25107;SDS011;13090;53.422;7.670;2023-04-24T15:58:24;3.95;;;1.20;;
25107;SDS011;13090;53.422;7.670;2023-04-24T16:03:26;1.42;;;0.80;;
25107;SDS011;13090;53.422;7.670;2023-04-24T16:08:30;3.22;;;1.25;;
25107;SDS011;13090;53.422;7.670;2023-04-24T16:13:32;2.85;;;1.38;;
25107;SDS011;13090;53.422;7.670;2023-04-24T16:18:34;2.75;;;1.35;;
25107;SDS011;13090;53.422;7.670;2023-04-24T16:23:38;5.25;;;1.75;;
25107;SDS011;13090;53.422;7.670;2023-04-24T16:28:40;3.88;;;1.45;;
25107;SDS011;13090;53.422;7.670;2023-04-24T16:33:43;3.20;;;1.23;;
25107;SDS011;13090;53.422;7.670;2023-04-24T16:38:46;6.13;;;1.90;;
25107;SDS011;13090;53.422;7.670;2023-04-24T16:43:49;5.95;;;2.15;;
25107;SDS011;13090;53.422;7.670;2023-04-24T16:48:52;7.80;;;2.28;;
25107;SDS011;13090;53.422;7.670;2023-04-24T16:53:56;4.65;;;2.08;;
25107;SDS011;13090;53.422;7.670;2023-04-24T16:58:58;3.63;;;1.85;;
25107;SDS011;13090;53.422;7.670;2023-04-24T17:04:00;6.50;;;2.15;;
25107;SDS011;13090;53.422;7.670;2023-04-24T17:09:04;5.28;;;2.33;;
25107;SDS011;13090;53.422;7.670;2023-04-24T17:14:06;4.97;;;2.25;;
25107;SDS011;13090;53.422;7.670;2023-04-24T17:19:09;5.30;;;2.40;;
25107;SDS011;13090;53.422;7.670;2023-04-24T17:24:12;5.97;;;2.40;;
25107;SDS011;13090;53.422;7.670;2023-04-24T17:29:14;7.60;;;2.38;;
25107;SDS011;13090;53.422;7.670;2023-04-24T17:34:17;6.63;;;2.33;;
25107;SDS011;13090;53.422;7.670;2023-04-24T17:39:20;4.45;;;2.10;;
25107;SDS011;13090;53.422;7.670;2023-04-24T17:44:23;5.88;;;2.15;;
25107;SDS011;13090;53.422;7.670;2023-04-24T17:49:25;4.40;;;1.90;;
25107;SDS011;13090;53.422;7.670;2023-04-24T17:54:29;5.30;;;1.90;;
25107;SDS011;13090;53.422;7.670;2023-04-24T17:59:31;4.97;;;1.98;;
25107;SDS011;13090;53.422;7.670;2023-04-24T18:04:33;3.88;;;2.10;;
25107;SDS011;13090;53.422;7.670;2023-04-24T18:09:37;5.13;;;2.00;;
25107;SDS011;13090;53.422;7.670;2023-04-24T18:14:39;5.93;;;2.28;;
25107;SDS011;13090;53.422;7.670;2023-04-24T18:19:41;4.25;;;1.70;;
25107;SDS011;13090;53.422;7.670;2023-04-24T18:24:45;5.30;;;1.83;;
25107;SDS011;13090;53.422;7.670;2023-04-24T18:29:47;3.63;;;1.60;;
25107;SDS011;13090;53.422;7.670;2023-04-24T18:34:50;5.38;;;1.83;;
25107;SDS011;13090;53.422;7.670;2023-04-24T18:39:53;4.25;;;1.90;;
25107;SDS011;13090;53.422;7.670;2023-04-24T18:44:55;3.47;;;1.80;;
25107;SDS011;13090;53.422;7.670;2023-04-24T18:49:57;4.20;;;1.52;;
25107;SDS011;13090;53.422;7.670;2023-04-24T18:55:01;4.13;;;1.60;;
25107;SDS011;13090;53.422;7.670;2023-04-24T19:00:04;5.70;;;1.90;;
25107;SDS011;13090;53.422;7.670;2023-04-24T19:05:07;3.78;;;1.40;;
25107;SDS011;13090;53.422;7.670;2023-04-24T19:10:11;3.35;;;1.73;;
25107;SDS011;13090;53.422;7.670;2023-04-24T19:15:13;3.92;;;2.30;;
25107;SDS011;13090;53.422;7.670;2023-04-24T19:20:16;3.83;;;1.73;;
25107;SDS011;13090;53.422;7.670;2023-04-24T19:25:20;6.45;;;2.08;;
25107;SDS011;13090;53.422;7.670;2023-04-24T19:30:22;1.88;;;1.42;;
25107;SDS011;13090;53.422;7.670;2023-04-24T19:35:24;3.65;;;1.83;;
25107;SDS011;13090;53.422;7.670;2023-04-24T19:40:28;5.47;;;2.00;;
25107;SDS011;13090;53.422;7.670;2023-04-24T19:45:30;5.88;;;1.90;;
25107;SDS011;13090;53.422;7.670;2023-04-24T19:50:32;5.30;;;1.60;;
25107;SDS011;13090;53.422;7.670;2023-04-24T19:55:36;3.92;;;1.83;;
25107;SDS011;13090;53.422;7.670;2023-04-24T20:00:38;3.83;;;1.70;;
25107;SDS011;13090;53.422;7.670;2023-04-24T20:05:40;3.28;;;2.10;;
25107;SDS011;13090;53.422;7.670;2023-04-24T20:10:44;5.50;;;2.03;;
25107;SDS011;13090;53.422;7.670;2023-04-24T20:15:46;4.40;;;2.10;;
25107;SDS011;13090;53.422;7.670;2023-04-24T20:20:48;3.25;;;1.73;;
25107;SDS011;13090;53.422;7.670;2023-04-24T20:25:52;5.90;;;2.10;;
25107;SDS011;13090;53.422;7.670;2023-04-24T20:30:54;12.35;;;2.38;;
25107;SDS011;13090;53.422;7.670;2023-04-24T20:35:57;9.52;;;2.53;;
25107;SDS011;13090;53.422;7.670;2023-04-24T20:41:01;9.45;;;3.03;;
25107;SDS011;13090;53.422;7.670;2023-04-24T20:46:03;7.97;;;2.38;;
25107;SDS011;13090;53.422;7.670;2023-04-24T20:51:06;4.45;;;2.63;;
25107;SDS011;13090;53.422;7.670;2023-04-24T20:56:09;5.10;;;2.47;;
25107;SDS011;13090;53.422;7.670;2023-04-24T21:01:12;4.97;;;2.20;;
25107;SDS011;13090;53.422;7.670;2023-04-24T21:06:14;6.82;;;2.67;;
25107;SDS011;13090;53.422;7.670;2023-04-24T21:11:18;5.90;;;2.92;;
25107;SDS011;13090;53.422;7.670;2023-04-24T21:16:20;5.75;;;2.92;;
25107;SDS011;13090;53.422;7.670;2023-04-24T21:21:22;6.18;;;2.58;;
25107;SDS011;13090;53.422;7.670;2023-04-24T21:26:26;4.28;;;2.53;;
25107;SDS011;13090;53.422;7.670;2023-04-24T21:31:28;9.18;;;2.55;;
25107;SDS011;13090;53.422;7.670;2023-04-24T21:36:30;16.92;;;3.50;;
25107;SDS011;13090;53.422;7.670;2023-04-24T21:41:34;17.27;;;3.75;;
25107;SDS011;13090;53.422;7.670;2023-04-24T21:46:39;23.58;;;4.28;;
25107;SDS011;13090;53.422;7.670;2023-04-24T21:52:15;20.67;;;3.90;;
25107;SDS011;13090;53.422;7.670;2023-04-24T22:04:13;22.10;;;4.10;;
25107;SDS011;13090;53.422;7.670;2023-04-24T22:09:43;16.17;;;3.35;;
25107;SDS011;13090;53.422;7.670;2023-04-24T22:33:18;17.73;;;3.65;;
25107;SDS011;13090;53.422;7.670;2023-04-24T22:38:40;22.35;;;3.95;;
25107;SDS011;13090;53.422;7.670;2023-04-24T22:50:23;21.50;;;3.10;;
25107;SDS011;13090;53.422;7.670;2023-04-24T22:55:41;16.30;;;3.38;;
25107;SDS011;13090;53.422;7.670;2023-04-24T23:00:50;15.20;;;3.63;;
25107;SDS011;13090;53.422;7.670;2023-04-24T23:06:30;27.00;;;3.33;;
25107;SDS011;13090;53.422;7.670;2023-04-24T23:11:54;16.50;;;3.00;;
25107;SDS011;13090;53.422;7.670;2023-04-24T23:17:03;21.67;;;3.30;;
25107;SDS011;13090;53.422;7.670;2023-04-24T23:28:37;17.15;;;3.20;;
25107;SDS011;13090;53.422;7.670;2023-04-24T23:39:26;17.95;;;3.60;;
25107;SDS011;13090;53.422;7.670;2023-04-24T23:44:51;16.05;;;3.22;;
25107;SDS011;13090;53.422;7.670;2023-04-24T23:50:26;17.73;;;3.38;;
25107;SDS011;13090;53.422;7.670;2023-04-24T23:55:42;14.45;;;3.05;;
